Pekin, Ohio
Current Conditions -  °F | °C
As of 9:07 PM on Friday 31 Oct 2014 (Local Time) from KCAK Reporting Station
Light Rain Light Rain  
Wind Chill: 43°   Ceiling: 1900
Heat Index: 43°   Visibility: 5mi
Dew Point: 39°   Wind: 3mph
Humidity: 87%   Direction: 60°ENE
Pressure: 29.89"   Gusts: NA
Location:  40.7427°N, 81.0929°W
Report Text: KCAK 010107Z 06003KT 5SM -RA BR BKN019 OVC028 06/04 A2989 RMK AO2 P0001
Loading
Personal Weather Stations






























Interactive Weather Map
Tropical Storm Tracking
New forecast layout! Learn more

10-Day Weather Forecast

Advertisements
Track Severe Weather on mobile